Time;durP1;ratioP1;P1;durP2;ratioP2;P2;SDS_P1;SDS_P2;PMS_P1;PMS_P2;Temp;Humidity;BMP_temperature;BMP_pressure;BME280_temperature;BME280_humidity;BME280_pressure;Samples;Min_cycle;Max_cycle;Signal;HPM_P1;HPM_P2
2023/11/29 00:00:15;;;;;;;3.40;2.37;;;;;;;6.92;100.00;99843.66;2095690;28;20645;-61
2023/11/29 00:01:15;;;;;;;3.37;2.20;;;;;;;6.89;100.00;99847.25;2096003;28;20488;-61
2023/11/29 00:02:16;;;;;;;4.03;2.43;;;;;;;6.70;100.00;99831.53;2095898;28;20298;-61
2023/11/29 00:03:16;;;;;;;3.57;2.30;;;;;;;6.80;100.00;99860.81;2095630;28;20573;-61
2023/11/29 00:04:17;;;;;;;3.80;2.60;;;;;;;6.81;100.00;99863.16;2095489;28;20201;-61
2023/11/29 00:05:19;;;;;;;4.17;2.77;;;;;;;6.83;100.00;99866.25;2092950;28;20192;-61
2023/11/29 00:06:19;;;;;;;3.95;2.55;;;;;;;6.82;100.00;99872.19;2089247;28;20189;-61
2023/11/29 00:07:20;;;;;;;4.90;2.40;;;;;;;6.82;100.00;99875.72;2094914;28;20207;-61
2023/11/29 00:08:20;;;;;;;4.33;2.40;;;;;;;6.83;100.00;99871.75;2089060;28;20180;-61
2023/11/29 00:09:21;;;;;;;4.27;2.50;;;;;;;6.85;100.00;99871.31;2089540;28;20216;-62
2023/11/29 00:10:22;;;;;;;3.77;2.40;;;;;;;6.84;100.00;99870.56;2087720;28;20188;-61
2023/11/29 00:11:23;;;;;;;4.15;2.25;;;;;;;6.84;100.00;99870.56;2087434;28;20275;-62
2023/11/29 00:12:24;;;;;;;4.25;2.42;;;;;;;6.88;100.00;99878.75;2091555;28;20663;-61
2023/11/29 00:13:24;;;;;;;5.17;2.70;;;;;;;6.89;100.00;99880.31;2096963;28;20622;-61
2023/11/29 00:14:25;;;;;;;4.30;2.87;;;;;;;6.85;100.00;99869.38;2095937;28;20180;-61
2023/11/29 00:15:25;;;;;;;3.43;2.30;;;;;;;6.95;100.00;99875.84;2095703;28;20183;-62
2023/11/29 00:16:26;;;;;;;3.47;2.37;;;;;;;6.94;100.00;99877.84;2097087;28;20176;-62
2023/11/29 00:17:26;;;;;;;5.13;2.63;;;;;;;6.96;100.00;99877.38;2096278;28;20184;-62
2023/11/29 00:18:27;;;;;;;4.30;2.17;;;;;;;7.01;100.00;99890.66;2095810;28;20616;-62
2023/11/29 00:19:27;;;;;;;4.30;2.40;;;;;;;6.93;100.00;99870.00;2094928;28;20341;-61
2023/11/29 00:20:30;;;;;;;3.77;2.73;;;;;;;7.00;100.00;99889.91;2095119;28;20730;-61
2023/11/29 00:21:32;;;;;;;5.22;3.05;;;;;;;7.01;100.00;99880.44;2093124;28;20188;-61
2023/11/29 00:22:33;;;;;;;3.97;2.35;;;;;;;6.61;100.00;99845.84;2087619;28;20184;-61
2023/11/29 00:23:33;;;;;;;4.37;2.57;;;;;;;7.01;100.00;99890.66;2097277;28;20192;-61
2023/11/29 00:24:34;;;;;;;3.87;2.17;;;;;;;6.10;100.00;99761.19;2103908;28;20597;-62
2023/11/29 00:25:34;;;;;;;4.23;2.87;;;;;;;7.13;100.00;99901.81;2096135;28;20563;-61
2023/11/29 00:26:35;;;;;;;2.90;2.00;;;;;;;7.18;100.00;99900.53;2095272;28;20187;-62
2023/11/29 00:27:35;;;;;;;3.40;2.43;;;;;;;7.19;100.00;99896.59;2090518;28;20224;-61
2023/11/29 00:28:36;;;;;;;4.13;2.30;;;;;;;6.62;100.00;99819.88;2091167;28;20203;-61
2023/11/29 00:29:36;;;;;;;3.33;2.10;;;;;;;7.22;100.00;99909.53;2095311;28;20168;-62
2023/11/29 00:30:37;;;;;;;4.17;2.60;;;;;;;7.26;100.00;99905.47;2095195;28;20207;-61
2023/11/29 00:31:37;;;;;;;3.70;2.50;;;;;;;7.23;100.00;99900.03;2096079;28;20174;-61
2023/11/29 00:32:38;;;;;;;4.47;2.33;;;;;;;7.24;100.00;99899.63;2087567;28;20210;-61
2023/11/29 00:33:38;;;;;;;4.20;2.30;;;;;;;7.05;100.00;99875.63;2087241;28;20199;-62
2023/11/29 00:34:39;;;;;;;3.50;2.77;;;;;;;7.17;100.00;99891.50;2093124;28;20755;-61
2023/11/29 00:35:39;;;;;;;4.23;2.23;;;;;;;7.08;100.00;99877.50;2091299;28;20276;-61
2023/11/29 00:36:40;;;;;;;2.43;2.07;;;;;;;7.23;100.00;99898.03;2087771;28;20202;-61
2023/11/29 00:37:40;;;;;;;3.50;2.17;;;;;;;7.19;100.00;99902.88;2091444;28;20170;-61
2023/11/29 00:38:41;;;;;;;3.60;2.30;;;;;;;7.19;100.00;99900.13;2096695;28;20175;-61
2023/11/29 00:39:42;;;;;;;4.07;2.70;;;;;;;7.20;100.00;99903.63;2095759;28;20204;-61
2023/11/29 00:40:42;;;;;;;4.00;2.33;;;;;;;7.25;100.00;99903.94;2087121;28;20660;-61
2023/11/29 00:41:43;;;;;;;4.97;2.60;;;;;;;7.28;100.00;99902.28;2087440;28;20189;-61
2023/11/29 00:42:43;;;;;;;3.60;2.63;;;;;;;7.27;100.00;99903.47;2091991;28;20228;-61
2023/11/29 00:43:44;;;;;;;3.87;2.27;;;;;;;7.27;100.00;99906.22;2094886;28;20196;-61
2023/11/29 00:44:44;;;;;;;3.53;2.30;;;;;;;7.27;100.00;99909.78;2095298;28;20169;-62
2023/11/29 00:45:45;;;;;;;4.23;2.33;;;;;;;7.30;100.00;99917.19;2094213;28;20173;-61
2023/11/29 00:46:45;;;;;;;5.03;2.50;;;;;;;7.37;100.00;99919.78;2087136;28;20170;-62
2023/11/29 00:47:46;;;;;;;3.67;2.13;;;;;;;7.00;100.00;99859.59;2096192;28;20263;-61
2023/11/29 00:48:46;;;;;;;3.87;2.60;;;;;;;7.36;100.00;99921.00;2088647;28;20221;-61
2023/11/29 00:49:47;;;;;;;4.87;2.60;;;;;;;6.55;100.00;99792.50;2093496;28;20193;-61
2023/11/29 00:50:47;;;;;;;4.07;2.50;;;;;;;7.39;100.00;99928.41;2090351;28;20630;-61
2023/11/29 00:51:48;;;;;;;4.13;2.70;;;;;;;7.45;100.00;99939.72;2090313;28;20600;-61
2023/11/29 00:52:48;;;;;;;4.03;2.50;;;;;;;7.48;100.00;99941.63;2095425;28;20710;-62
2023/11/29 00:53:49;;;;;;;3.60;2.50;;;;;;;7.39;100.00;99924.88;2095881;28;20617;-61
2023/11/29 00:54:50;;;;;;;3.83;2.37;;;;;;;7.46;100.00;99941.25;2096212;28;20176;-61
2023/11/29 00:55:50;;;;;;;3.77;2.70;;;;;;;7.43;100.00;99948.41;2095653;28;20286;-62
2023/11/29 00:56:51;;;;;;;3.93;2.57;;;;;;;7.47;100.00;99945.56;2095430;28;20205;-62
2023/11/29 00:57:51;;;;;;;3.90;2.63;;;;;;;7.49;100.00;99940.41;2095780;28;20256;-61
2023/11/29 00:58:52;;;;;;;4.33;2.63;;;;;;;7.37;100.00;99936.31;2091519;28;20233;-61
2023/11/29 00:59:52;;;;;;;3.23;2.20;;;;;;;6.79;100.00;99860.06;2089324;28;20203;-61
2023/11/29 01:00:53;;;;;;;3.70;2.70;;;;;;;7.08;100.00;99891.28;2094848;28;20165;-61
2023/11/29 01:01:53;;;;;;;3.23;2.10;;;;;;;7.48;100.00;99958.91;2095125;28;20178;-61
2023/11/29 01:02:54;;;;;;;4.20;2.40;;;;;;;7.50;100.00;99975.03;2096245;28;20575;-61
2023/11/29 01:03:54;;;;;;;3.40;2.30;;;;;;;7.53;100.00;99961.19;2094943;28;20194;-61
2023/11/29 01:04:55;;;;;;;3.07;2.47;;;;;;;6.64;100.00;99825.75;2095276;28;20364;-62
2023/11/29 01:05:56;;;;;;;4.77;2.80;;;;;;;7.53;100.00;99965.94;2095281;28;20279;-61
2023/11/29 01:06:56;;;;;;;3.23;2.47;;;;;;;7.50;100.00;99967.56;2092180;28;20757;-61
2023/11/29 01:07:57;;;;;;;3.73;2.40;;;;;;;6.89;100.00;99883.06;2087342;28;20176;-61
2023/11/29 01:08:57;;;;;;;3.30;2.50;;;;;;;7.45;100.00;99972.78;2087741;28;20180;-61
2023/11/29 01:09:58;;;;;;;4.63;2.87;;;;;;;7.45;100.00;99970.81;2095861;28;20691;-61
2023/11/29 01:10:58;;;;;;;3.47;2.43;;;;;;;6.55;100.00;99842.06;2088606;28;20617;-61
2023/11/29 01:11:59;;;;;;;3.40;2.20;;;;;;;7.48;100.00;99971.94;2095921;28;20187;-61
2023/11/29 01:12:59;;;;;;;3.27;2.57;;;;;;;7.50;100.00;99969.53;2097444;28;20281;-62
2023/11/29 01:14:00;;;;;;;3.53;2.60;;;;;;;7.52;100.00;99972.63;2096647;28;20192;-61
2023/11/29 01:15:02;;;;;;;3.57;2.40;;;;;;;7.56;100.00;99976.09;2096702;28;20226;-61
2023/11/29 01:16:02;;;;;;;4.40;2.97;;;;;;;7.54;100.00;99973.00;2097443;28;20178;-61
2023/11/29 01:17:03;;;;;;;3.80;2.67;;;;;;;7.53;100.00;99974.19;2096658;28;20186;-61
2023/11/29 01:18:04;;;;;;;3.53;2.47;;;;;;;7.49;100.00;99985.28;2089536;28;20179;-61
2023/11/29 01:19:05;;;;;;;4.13;2.70;;;;;;;7.50;100.00;99981.34;2096725;28;20475;-61
2023/11/29 01:20:06;;;;;;;4.27;2.47;;;;;;;7.51;100.00;99977.38;2096490;28;20190;-62
2023/11/29 01:21:14;;;;;;;4.60;2.77;;;;;;;7.53;100.00;99985.22;2095310;28;20191;-61
2023/11/29 01:22:14;;;;;;;4.00;2.55;;;;;;;7.57;100.00;99981.19;2094344;28;20562;-61
2023/11/29 01:23:15;;;;;;;3.63;2.53;;;;;;;7.56;100.00;99987.91;2091536;28;20202;-62
2023/11/29 01:24:15;;;;;;;4.93;2.63;;;;;;;7.57;100.00;99989.44;2089782;28;20714;-61
2023/11/29 01:25:16;;;;;;;4.77;3.17;;;;;;;7.56;100.00;99995.38;2095198;28;20261;-61
2023/11/29 01:26:16;;;;;;;4.90;3.27;;;;;;;7.41;100.00;99983.09;2096062;28;20174;-61
2023/11/29 01:27:17;;;;;;;5.27;2.77;;;;;;;7.50;100.00;100000.66;2087237;28;20284;-61
2023/11/29 01:28:17;;;;;;;5.03;2.83;;;;;;;7.49;100.00;100001.81;2094207;28;20217;-61
2023/11/29 01:29:18;;;;;;;4.13;2.70;;;;;;;7.54;100.00;100008.84;2088914;28;20331;-61
2023/11/29 01:30:18;;;;;;;3.53;2.60;;;;;;;7.52;100.00;100013.97;2091058;28;20632;-61
2023/11/29 01:31:19;;;;;;;4.93;2.50;;;;;;;7.55;100.00;100015.91;2095080;28;20244;-61
2023/11/29 01:32:19;;;;;;;4.00;2.77;;;;;;;6.91;100.00;99914.47;2095101;28;20285;-61
2023/11/29 01:33:20;;;;;;;3.63;2.43;;;;;;;7.50;100.00;99997.09;2094013;28;20179;-61
2023/11/29 01:34:21;;;;;;;5.03;2.93;;;;;;;7.61;100.00;100012.22;2087221;28;20243;-61
2023/11/29 01:35:21;;;;;;;3.63;2.20;;;;;;;7.66;100.00;100008.16;2095133;28;20205;-61
2023/11/29 01:36:22;;;;;;;4.03;2.50;;;;;;;7.59;100.00;100017.34;2088249;28;20268;-62
2023/11/29 01:37:22;;;;;;;3.17;2.30;;;;;;;7.61;100.00;100017.72;2086723;28;20203;-62
2023/11/29 01:38:23;;;;;;;3.03;1.90;;;;;;;7.65;100.00;100021.19;2092273;28;20240;-61
2023/11/29 01:39:23;;;;;;;2.83;2.00;;;;;;;7.67;100.00;100021.53;2091772;28;20614;-61
2023/11/29 01:40:24;;;;;;;3.40;2.10;;;;;;;7.63;100.00;100020.06;2087746;28;20237;-61
2023/11/29 01:41:24;;;;;;;3.27;2.03;;;;;;;7.58;100.00;100007.53;2094813;28;20178;-61
2023/11/29 01:42:25;;;;;;;2.70;1.97;;;;;;;7.66;100.00;100016.44;2095550;28;20648;-61
2023/11/29 01:43:26;;;;;;;3.77;2.40;;;;;;;7.69;100.00;100015.59;2095232;28;20681;-61
2023/11/29 01:44:26;;;;;;;2.87;2.20;;;;;;;7.54;100.00;100008.84;2088284;28;20195;-62
2023/11/29 01:45:27;;;;;;;2.70;2.10;;;;;;;7.63;100.00;100011.78;2091972;28;20596;-62
2023/11/29 01:46:28;;;;;;;3.13;2.23;;;;;;;7.22;100.00;99954.38;2091149;28;20262;-62
2023/11/29 01:47:33;;;;;;;3.05;2.17;;;;;;;7.64;100.00;100013.34;2086641;28;20234;-61
2023/11/29 01:48:35;;;;;;;2.95;1.80;;;;;;;7.55;100.00;100010.38;2086759;28;20153;-61
2023/11/29 01:49:36;;;;;;;2.93;1.93;;;;;;;7.44;100.00;100016.09;2087671;28;20699;-61
2023/11/29 01:50:38;;;;;;;3.42;2.20;;;;;;;7.46;100.00;100019.22;2094936;28;21236;-61
2023/11/29 01:51:39;;;;;;;3.43;2.30;;;;;;;6.75;100.00;99913.63;2086451;28;20296;-61
2023/11/29 01:52:40;;;;;;;3.63;2.03;;;;;;;7.32;100.00;100008.50;2092927;28;20445;-62
2023/11/29 01:53:41;;;;;;;3.57;2.27;;;;;;;7.49;100.00;100017.59;2093893;28;20316;-62
2023/11/29 01:54:42;;;;;;;3.03;2.10;;;;;;;7.20;100.00;99981.59;2094937;28;20474;-61
2023/11/29 01:55:46;;;;;;;2.97;1.90;;;;;;;7.46;100.00;100026.72;2091631;28;20227;-61
2023/11/29 01:56:47;;;;;;;4.30;2.10;;;;;;;7.47;100.00;100020.78;2086769;28;20266;-61
2023/11/29 01:57:49;;;;;;;2.23;1.73;;;;;;;7.46;100.00;100019.22;2088423;28;20174;-61
2023/11/29 01:58:50;;;;;;;2.60;1.73;;;;;;;7.41;100.00;100025.25;2094228;28;20168;-61
2023/11/29 01:59:50;;;;;;;2.23;1.77;;;;;;;7.29;100.00;100005.81;2095278;28;20178;-61
2023/11/29 02:00:51;;;;;;;2.77;1.87;;;;;;;7.39;100.00;100019.34;2086808;28;20216;-61
2023/11/29 02:01:52;;;;;;;3.00;1.98;;;;;;;7.25;100.00;100027.94;2093287;28;20198;-61
2023/11/29 02:02:52;;;;;;;2.80;1.80;;;;;;;7.23;100.00;100030.31;2089997;28;20685;-61
2023/11/29 02:03:53;;;;;;;2.63;1.80;;;;;;;7.16;100.00;100027.72;2090522;28;20819;-61
2023/11/29 02:04:54;;;;;;;2.87;1.90;;;;;;;7.10;100.00;100029.41;2094745;28;20286;-61
2023/11/29 02:05:54;;;;;;;2.60;1.93;;;;;;;6.96;100.00;100015.91;2093549;28;20630;-61
2023/11/29 02:06:55;;;;;;;2.67;1.63;;;;;;;7.06;100.00;100042.47;2086631;28;20206;-61
2023/11/29 02:07:56;;;;;;;2.33;1.70;;;;;;;7.06;100.00;100044.44;2087296;28;20265;-62
2023/11/29 02:08:56;;;;;;;2.80;1.80;;;;;;;7.06;100.00;100045.22;2086885;28;20198;-61
2023/11/29 02:09:57;;;;;;;2.47;1.77;;;;;;;7.05;100.00;100045.63;2086790;28;20309;-61
2023/11/29 02:10:58;;;;;;;2.43;1.80;;;;;;;7.03;100.00;100048.03;2086398;28;20209;-61
2023/11/29 02:11:59;;;;;;;3.63;1.80;;;;;;;7.03;100.00;100048.81;2091041;28;20194;-61
2023/11/29 02:13:00;;;;;;;2.28;1.80;;;;;;;7.01;100.00;100050.44;2095003;28;20241;-61
2023/11/29 02:14:01;;;;;;;1.90;1.50;;;;;;;6.83;100.00;100036.97;2094846;28;20274;-61
2023/11/29 02:15:03;;;;;;;2.15;1.48;;;;;;;6.21;100.00;99951.56;2095584;28;20189;-61
2023/11/29 02:16:04;;;;;;;1.98;1.50;;;;;;;6.85;100.00;100058.59;2086439;28;20682;-61
2023/11/29 02:17:04;;;;;;;2.57;1.43;;;;;;;6.90;100.00;100061.66;2094105;28;20662;-61
2023/11/29 02:18:05;;;;;;;2.27;1.20;;;;;;;6.92;100.00;100059.25;2087983;28;20208;-62
2023/11/29 02:19:05;;;;;;;1.70;1.07;;;;;;;6.87;100.00;100065.25;2086674;28;20271;-61
2023/11/29 02:20:07;;;;;;;3.03;1.73;;;;;;;6.88;100.00;100063.28;2093180;28;20794;-62
2023/11/29 02:21:07;;;;;;;2.17;1.33;;;;;;;6.80;100.00;100070.88;2094718;28;20187;-61
2023/11/29 02:22:08;;;;;;;2.10;1.30;;;;;;;6.80;100.00;100094.88;2092554;28;20176;-61
2023/11/29 02:23:33;;;;;;;1.60;1.25;;;;;;;6.76;100.00;100067.41;2086654;28;20169;-61
2023/11/29 02:24:41;;;;;;;3.55;1.75;;;;;;;6.71;100.00;100062.38;2086903;28;20198;-62
2023/11/29 02:25:42;;;;;;;1.73;1.15;;;;;;;6.75;100.00;100071.38;2086576;28;20198;-61
2023/11/29 02:26:42;;;;;;;2.20;1.47;;;;;;;6.72;100.00;100076.94;2088535;28;20254;-61
2023/11/29 02:27:43;;;;;;;2.13;1.30;;;;;;;6.63;100.00;100076.69;2094122;28;20163;-62
2023/11/29 02:28:43;;;;;;;1.80;1.23;;;;;;;6.66;100.00;100076.63;2095169;28;20260;-61
2023/11/29 02:29:44;;;;;;;1.97;1.47;;;;;;;6.67;100.00;100077.41;2094461;28;20197;-61
2023/11/29 02:30:44;;;;;;;1.83;1.30;;;;;;;6.64;100.00;100081.00;2086994;28;20213;-61
2023/11/29 02:31:45;;;;;;;1.60;1.20;;;;;;;6.71;100.00;100078.91;2092524;28;20278;-61
2023/11/29 02:32:45;;;;;;;2.27;1.37;;;;;;;6.19;100.00;100016.47;2094440;28;20202;-61
2023/11/29 02:33:46;;;;;;;2.10;1.30;;;;;;;5.58;100.00;99922.31;2094885;28;20199;-61
2023/11/29 02:34:46;;;;;;;1.73;1.17;;;;;;;6.66;100.00;100095.13;2092359;28;20190;-61
2023/11/29 02:35:47;;;;;;;1.70;1.27;;;;;;;6.34;100.00;100050.81;2087527;28;20214;-61
2023/11/29 02:36:47;;;;;;;1.63;1.10;;;;;;;6.55;100.00;100080.75;2095168;28;20184;-61
2023/11/29 02:37:48;;;;;;;2.20;1.40;;;;;;;6.55;100.00;100089.78;2086578;28;20197;-61
2023/11/29 02:38:48;;;;;;;2.00;1.20;;;;;;;6.58;100.00;100101.94;2093532;28;20280;-61
2023/11/29 02:39:49;;;;;;;2.73;1.50;;;;;;;6.56;100.00;100087.81;2095691;28;20209;-61
2023/11/29 02:40:49;;;;;;;5.37;1.40;;;;;;;6.59;100.00;100093.28;2094109;28;20215;-61
2023/11/29 02:41:50;;;;;;;2.00;1.20;;;;;;;6.57;100.00;100090.13;2091469;28;20719;-61
2023/11/29 02:42:50;;;;;;;2.30;1.37;;;;;;;6.60;100.00;100096.78;2086400;28;20177;-61
2023/11/29 02:43:55;;;;;;;2.50;1.57;;;;;;;6.61;100.00;100101.88;2090354;28;20606;-61
2023/11/29 02:44:56;;;;;;;2.15;1.35;;;;;;;6.59;100.00;100104.28;2094339;28;20710;-61
2023/11/29 02:45:56;;;;;;;2.85;1.20;;;;;;;6.57;100.00;100105.91;2095112;28;20188;-61
2023/11/29 02:46:57;;;;;;;2.23;1.20;;;;;;;6.37;100.00;100080.25;2087579;28;20201;-61
2023/11/29 02:47:57;;;;;;;2.40;1.33;;;;;;;6.58;100.00;100099.97;2092744;28;20191;-61
2023/11/29 02:48:58;;;;;;;1.47;1.00;;;;;;;6.57;100.00;100100.38;2089504;28;20199;-61
2023/11/29 02:49:59;;;;;;;1.43;1.10;;;;;;;6.53;100.00;100097.69;2090312;28;20199;-61
2023/11/29 02:50:59;;;;;;;2.83;1.77;;;;;;;6.47;100.00;100093.84;2094111;28;20217;-61
2023/11/29 02:51:59;;;;;;;1.30;1.20;;;;;;;6.44;100.00;100091.16;2092849;28;20188;-61
2023/11/29 02:53:00;;;;;;;2.27;1.50;;;;;;;6.33;100.00;100085.03;2086950;28;20215;-61
2023/11/29 02:54:00;;;;;;;2.30;1.20;;;;;;;6.35;100.00;100096.41;2094969;28;20257;-61
2023/11/29 02:55:01;;;;;;;3.90;2.03;;;;;;;6.32;100.00;100100.78;2094918;28;20650;-61
2023/11/29 02:56:01;;;;;;;1.47;1.10;;;;;;;6.37;100.00;100094.81;2094752;28;20673;-61
2023/11/29 02:57:02;;;;;;;1.97;1.27;;;;;;;6.38;100.00;100101.06;2094939;28;20661;-62
2023/11/29 02:58:03;;;;;;;2.07;1.37;;;;;;;6.40;100.00;100098.69;2094595;28;20220;-62
2023/11/29 02:59:03;;;;;;;1.80;1.20;;;;;;;6.42;100.00;100094.31;2091483;28;20282;-61
2023/11/29 03:00:04;;;;;;;2.40;1.30;;;;;;;6.42;100.00;100104.56;2087702;28;20181;-62
2023/11/29 03:01:05;;;;;;;1.50;1.20;;;;;;;5.84;100.00;100028.78;2093819;28;20180;-61
2023/11/29 03:02:06;;;;;;;1.73;1.20;;;;;;;6.40;100.00;100099.47;2086804;28;20181;-61
2023/11/29 03:03:07;;;;;;;2.10;1.30;;;;;;;6.46;100.00;100108.03;2086968;28;20480;-61
2023/11/29 03:04:07;;;;;;;2.13;1.42;;;;;;;6.50;100.00;100114.25;2093150;28;20202;-61
2023/11/29 03:05:08;;;;;;;1.67;1.40;;;;;;;5.81;100.00;100024.13;2089337;28;20199;-61
2023/11/29 03:06:08;;;;;;;2.10;1.30;;;;;;;6.48;100.00;100111.94;2090700;28;20589;-61
2023/11/29 03:07:09;;;;;;;1.97;1.30;;;;;;;6.46;100.00;100116.28;2094624;28;20547;-61
2023/11/29 03:08:09;;;;;;;1.40;1.27;;;;;;;6.49;100.00;100116.25;2094412;28;20173;-61
2023/11/29 03:09:10;;;;;;;2.13;1.40;;;;;;;6.50;100.00;100122.50;2094712;28;20568;-62
2023/11/29 03:10:11;;;;;;;3.22;1.60;;;;;;;6.43;100.00;100103.34;2095600;28;20232;-61
2023/11/29 03:11:12;;;;;;;2.63;1.30;;;;;;;6.53;100.00;100116.19;2096091;28;20221;-61
2023/11/29 03:12:12;;;;;;;1.67;1.30;;;;;;;6.51;100.00;100124.09;2096076;28;20681;-61
2023/11/29 03:13:13;;;;;;;2.43;1.50;;;;;;;6.44;100.00;100118.66;2096018;28;20730;-61
2023/11/29 03:14:14;;;;;;;1.60;1.27;;;;;;;6.49;100.00;100123.69;2096176;28;20202;-61
2023/11/29 03:15:14;;;;;;;1.87;1.20;;;;;;;6.50;100.00;100128.78;2096079;28;20290;-62
2023/11/29 03:16:15;;;;;;;1.97;1.13;;;;;;;6.43;100.00;100111.63;2096467;28;20164;-61
2023/11/29 03:17:15;;;;;;;2.43;1.37;;;;;;;6.48;100.00;100128.44;2096129;28;20653;-61
2023/11/29 03:18:16;;;;;;;1.77;1.27;;;;;;;6.47;100.00;100131.63;2096583;28;20732;-61
2023/11/29 03:19:16;;;;;;;1.80;1.23;;;;;;;6.37;100.00;100130.59;2096091;28;20212;-61
2023/11/29 03:20:17;;;;;;;1.87;1.13;;;;;;;6.29;100.00;100131.06;2088763;28;20257;-61
2023/11/29 03:21:17;;;;;;;2.70;1.47;;;;;;;6.26;100.00;100131.94;2093420;28;20226;-62
2023/11/29 03:22:18;;;;;;;1.93;1.40;;;;;;;6.30;100.00;100135.41;2091789;28;20188;-61
2023/11/29 03:23:18;;;;;;;1.30;1.10;;;;;;;6.31;100.00;100145.97;2087985;28;20200;-61
2023/11/29 03:24:19;;;;;;;1.73;1.20;;;;;;;5.29;100.00;99980.81;2089223;28;20190;-61
2023/11/29 03:25:19;;;;;;;1.93;1.40;;;;;;;6.15;100.00;100118.31;2095090;28;20176;-62
2023/11/29 03:26:20;;;;;;;3.00;1.47;;;;;;;6.30;100.00;100140.91;2096696;28;20211;-61
2023/11/29 03:27:20;;;;;;;2.30;1.30;;;;;;;6.02;100.00;100102.78;2096564;28;20239;-62
2023/11/29 03:28:21;;;;;;;1.97;1.27;;;;;;;6.22;100.00;100140.22;2090933;28;20197;-61
2023/11/29 03:29:21;;;;;;;1.67;1.20;;;;;;;6.22;100.00;100144.94;2093533;28;20621;-62
2023/11/29 03:30:22;;;;;;;1.60;1.30;;;;;;;6.25;100.00;100142.13;2091333;28;20733;-61
2023/11/29 03:31:22;;;;;;;3.03;1.33;;;;;;;6.24;100.00;100145.31;2092058;28;20234;-61
2023/11/29 03:32:26;;;;;;;1.00;0.90;;;;;;;6.24;100.00;100148.84;2097086;28;20238;-61
2023/11/29 03:33:26;;;;;;;1.83;1.10;;;;;;;6.23;100.00;100144.53;2095543;28;20177;-61
2023/11/29 03:34:27;;;;;;;1.30;1.00;;;;;;;6.03;100.00;100113.38;2088573;28;20229;-61
2023/11/29 03:35:27;;;;;;;1.90;1.13;;;;;;;6.19;100.00;100148.50;2097528;28;20176;-61
2023/11/29 03:36:28;;;;;;;1.27;1.13;;;;;;;6.18;100.00;100150.50;2095508;28;20669;-61
2023/11/29 03:37:28;;;;;;;1.43;1.10;;;;;;;6.17;100.00;100151.69;2096119;28;20202;-61
2023/11/29 03:38:29;;;;;;;1.90;0.93;;;;;;;6.12;100.00;100152.16;2091732;28;20202;-61
2023/11/29 03:39:29;;;;;;;1.70;1.20;;;;;;;6.10;100.00;100148.25;2090688;28;20285;-61
2023/11/29 03:40:30;;;;;;;1.70;0.90;;;;;;;6.06;100.00;100148.28;2095441;28;20208;-61
2023/11/29 03:41:30;;;;;;;1.40;1.00;;;;;;;6.00;100.00;100155.44;2094706;28;20183;-61
2023/11/29 03:42:30;;;;;;;1.23;0.93;;;;;;;5.84;100.00;100125.00;2087645;28;20201;-61
2023/11/29 03:43:31;;;;;;;1.30;0.90;;;;;;;6.02;100.00;100161.34;2096968;28;20653;-61
2023/11/29 03:44:33;;;;;;;2.13;1.10;;;;;;;6.05;100.00;100166.00;2089463;28;20188;-61
2023/11/29 03:45:33;;;;;;;1.85;1.20;;;;;;;6.05;100.00;100163.25;2094145;28;20565;-61
2023/11/29 03:46:34;;;;;;;2.23;1.17;;;;;;;6.06;100.00;100169.53;2091300;28;20246;-62
2023/11/29 03:47:34;;;;;;;2.23;1.10;;;;;;;6.02;100.00;100180.59;2092085;28;20712;-61
2023/11/29 03:48:35;;;;;;;1.13;0.90;;;;;;;5.41;100.00;100077.22;2096075;28;20560;-61
2023/11/29 03:49:35;;;;;;;1.57;1.13;;;;;;;6.05;100.00;100177.00;2095866;28;20652;-61
2023/11/29 03:50:36;;;;;;;1.50;1.10;;;;;;;6.09;100.00;100174.97;2095538;28;20632;-62
2023/11/29 03:51:36;;;;;;;2.33;1.33;;;;;;;6.03;100.00;100173.09;2096901;28;20205;-62
2023/11/29 03:52:37;;;;;;;1.33;1.13;;;;;;;6.05;100.00;100174.25;2097215;28;20268;-61
2023/11/29 03:53:37;;;;;;;1.50;1.00;;;;;;;6.06;100.00;100170.28;2095821;28;20325;-62
2023/11/29 03:54:37;;;;;;;1.13;0.90;;;;;;;6.11;100.00;100177.31;2096086;28;20276;-61
2023/11/29 03:55:38;;;;;;;1.93;1.10;;;;;;;6.12;100.00;100173.38;2096172;28;20195;-61
2023/11/29 03:56:38;;;;;;;1.60;1.17;;;;;;;6.15;100.00;100164.31;2096395;28;20594;-62
2023/11/29 03:57:39;;;;;;;1.60;1.30;;;;;;;4.71;100.00;99951.69;2094793;28;20176;-62
2023/11/29 03:58:39;;;;;;;1.97;1.13;;;;;;;6.14;100.00;100179.22;2094296;28;20188;-62
2023/11/29 03:59:40;;;;;;;1.23;1.00;;;;;;;6.11;100.00;100172.59;2087204;28;20270;-61
2023/11/29 04:00:40;;;;;;;1.10;1.00;;;;;;;6.11;100.00;100171.81;2093933;28;20207;-61
2023/11/29 04:01:41;;;;;;;1.57;0.80;;;;;;;6.12;100.00;100176.13;2095520;28;20195;-61
2023/11/29 04:02:41;;;;;;;1.80;0.97;;;;;;;6.08;100.00;100172.63;2095353;28;20570;-61
2023/11/29 04:03:42;;;;;;;1.27;0.77;;;;;;;6.10;100.00;100184.03;2092592;28;20204;-61
2023/11/29 04:04:42;;;;;;;0.83;0.67;;;;;;;6.07;100.00;100187.59;2088507;28;20229;-61
2023/11/29 04:05:43;;;;;;;1.47;0.80;;;;;;;5.96;100.00;100165.72;2087800;28;20179;-61
2023/11/29 04:06:43;;;;;;;0.90;0.70;;;;;;;6.06;100.00;100178.53;2087922;28;20182;-61
2023/11/29 04:07:44;;;;;;;1.50;1.00;;;;;;;6.08;100.00;100183.63;2096581;28;20267;-61
2023/11/29 04:08:44;;;;;;;0.93;0.80;;;;;;;6.05;100.00;100184.47;2088572;28;20191;-61
2023/11/29 04:09:45;;;;;;;1.53;0.87;;;;;;;6.05;100.00;100188.00;2087631;28;20200;-61
2023/11/29 04:10:45;;;;;;;0.80;0.60;;;;;;;5.81;100.00;100149.81;2092129;28;20755;-61
2023/11/29 04:11:46;;;;;;;2.13;1.00;;;;;;;6.05;100.00;100196.25;2092029;28;20204;-62
2023/11/29 04:12:46;;;;;;;1.57;0.83;;;;;;;6.08;100.00;100194.66;2090511;28;20180;-61
2023/11/29 04:13:47;;;;;;;0.90;0.60;;;;;;;5.28;100.00;100078.94;2095841;28;20609;-61
2023/11/29 04:14:47;;;;;;;0.80;0.70;;;;;;;6.06;100.00;100197.03;2095884;28;20611;-61
2023/11/29 04:15:48;;;;;;;2.90;0.80;;;;;;;6.09;100.00;100212.69;2097195;28;20176;-61
2023/11/29 04:16:49;;;;;;;0.67;0.67;;;;;;;6.05;100.00;100199.00;2095917;28;20191;-62
2023/11/29 04:17:49;;;;;;;1.00;0.90;;;;;;;6.12;100.00;100206.38;2095966;28;20188;-61
2023/11/29 04:18:51;;;;;;;1.13;0.80;;;;;;;6.10;100.00;100201.28;2095826;28;20232;-61
2023/11/29 04:19:52;;;;;;;1.30;0.85;;;;;;;6.13;100.00;100196.94;2095542;28;20284;-61
2023/11/29 04:20:54;;;;;;;1.37;0.80;;;;;;;6.16;100.00;100210.66;2094151;28;20965;-61
2023/11/29 04:21:56;;;;;;;0.70;0.65;;;;;;;6.19;100.00;100212.59;2094166;28;20172;-61
2023/11/29 04:22:56;;;;;;;1.40;0.73;;;;;;;6.22;100.00;100213.72;2095085;28;20210;-61
2023/11/29 04:23:57;;;;;;;1.17;0.80;;;;;;;6.20;100.00;100214.13;2087913;28;20184;-61
2023/11/29 04:24:57;;;;;;;1.10;0.77;;;;;;;6.21;100.00;100212.19;2095910;28;20272;-61
2023/11/29 04:25:58;;;;;;;1.20;0.80;;;;;;;6.21;100.00;100207.44;2095637;28;20658;-61
2023/11/29 04:26:58;;;;;;;0.83;0.60;;;;;;;5.67;100.00;100139.72;2095967;28;20310;-61
2023/11/29 04:28:00;;;;;;;0.80;0.80;;;;;;;5.71;100.00;100134.97;2096864;28;20288;-61
2023/11/29 04:29:02;;;;;;;1.42;0.80;;;;;;;6.21;100.00;100209.41;2095178;28;20676;-61
2023/11/29 04:30:05;;;;;;;0.88;0.68;;;;;;;5.68;100.00;100116.53;2095329;28;20215;-61
2023/11/29 04:31:06;;;;;;;0.82;0.80;;;;;;;6.10;100.00;100181.28;2095066;28;20244;-62
2023/11/29 04:32:06;;;;;;;1.00;0.70;;;;;;;6.27;100.00;100205.81;2095380;28;20222;-61
2023/11/29 04:33:07;;;;;;;1.37;0.90;;;;;;;6.25;100.00;100207.41;2096309;28;20210;-61
2023/11/29 04:34:08;;;;;;;2.03;0.90;;;;;;;6.22;100.00;100206.25;2095459;28;20718;-61
2023/11/29 04:35:08;;;;;;;1.70;0.87;;;;;;;6.23;100.00;100201.53;2095892;28;20197;-61
2023/11/29 04:36:09;;;;;;;1.07;0.80;;;;;;;6.26;100.00;100201.47;2090377;28;20197;-61
2023/11/29 04:37:10;;;;;;;1.50;0.90;;;;;;;6.21;100.00;100199.19;2090908;28;20211;-61
2023/11/29 04:38:15;;;;;;;1.80;1.00;;;;;;;6.20;100.00;100200.38;2093000;28;20203;-61
2023/11/29 04:39:15;;;;;;;2.60;1.10;;;;;;;6.25;100.00;100207.41;2089046;28;20165;-61
2023/11/29 04:40:16;;;;;;;1.77;0.90;;;;;;;5.30;100.00;100057.34;2094252;28;20272;-61
2023/11/29 04:41:16;;;;;;;2.23;1.10;;;;;;;5.64;100.00;100113.06;2087605;28;20186;-61
2023/11/29 04:42:17;;;;;;;1.37;1.03;;;;;;;6.20;100.00;100203.13;2087373;28;20218;-61
2023/11/29 04:43:18;;;;;;;1.50;1.10;;;;;;;6.22;100.00;100202.72;2087230;28;20212;-61
2023/11/29 04:44:18;;;;;;;1.73;1.20;;;;;;;6.15;100.00;100209.09;2087436;28;20238;-61